createdAt,value
2023-02-06T00:01:06.506Z,10.70
2023-02-06T00:06:08.684Z,11.23
2023-02-06T00:11:13.388Z,9.80
2023-02-06T00:16:16.317Z,13.23
2023-02-06T00:21:20.226Z,13.02
2023-02-06T00:26:22.767Z,10.23
2023-02-06T00:31:24.453Z,10.13
2023-02-06T00:36:26.301Z,13.77
2023-02-06T00:41:27.996Z,11.07
2023-02-06T00:46:29.800Z,9.50
2023-02-06T00:51:31.508Z,12.67
2023-02-06T00:56:33.565Z,11.93
2023-02-06T01:01:35.220Z,10.55
2023-02-06T01:06:36.958Z,10.30
2023-02-06T01:11:38.654Z,10.63
2023-02-06T01:16:40.372Z,13.03
2023-02-06T01:21:42.133Z,12.97
2023-02-06T01:26:43.932Z,15.47
2023-02-06T01:31:45.746Z,14.80
2023-02-06T01:36:47.508Z,16.30
2023-02-06T01:41:50.999Z,13.20
2023-02-06T01:46:55.782Z,16.33
2023-02-06T01:52:07.523Z,16.48
2023-02-06T01:57:12.481Z,16.47
2023-02-06T02:02:14.348Z,15.57
2023-02-06T02:07:31.793Z,13.48
2023-02-06T02:12:33.674Z,15.60
2023-02-06T02:18:02.762Z,13.83
2023-02-06T02:23:30.491Z,14.93
2023-02-06T02:28:34.162Z,13.43
2023-02-06T02:34:13.806Z,15.87
2023-02-06T02:39:21.518Z,17.95
2023-02-06T02:44:43.055Z,13.98
2023-02-06T02:49:45.878Z,14.77
2023-02-06T02:54:47.719Z,16.88
2023-02-06T02:59:51.791Z,17.30
2023-02-06T03:05:00.725Z,15.55
2023-02-06T03:10:31.489Z,14.93
2023-02-06T03:15:50.510Z,15.00
2023-02-06T03:20:52.808Z,14.30
2023-02-06T03:25:58.242Z,16.17
2023-02-06T03:31:05.588Z,14.38
2023-02-06T03:36:09.963Z,15.35
2023-02-06T03:41:13.771Z,15.15
2023-02-06T03:46:18.111Z,15.07
2023-02-06T03:51:28.360Z,12.38
2023-02-06T03:56:47.053Z,16.63
2023-02-06T04:01:53.029Z,13.48
2023-02-06T04:06:57.672Z,12.90
2023-02-06T04:11:59.320Z,14.88
2023-02-06T04:17:00.981Z,12.93
2023-02-06T04:22:03.436Z,16.47
2023-02-06T04:32:09.172Z,16.67
2023-02-06T04:37:12.480Z,15.53
2023-02-06T04:42:14.129Z,15.70
2023-02-06T04:47:15.858Z,13.90
2023-02-06T04:52:17.635Z,15.85
2023-02-06T04:57:19.421Z,14.20
2023-02-06T05:02:21.324Z,15.82
2023-02-06T05:07:23.007Z,16.30
2023-02-06T05:12:24.899Z,13.55
2023-02-06T05:17:26.623Z,12.30
2023-02-06T05:22:28.438Z,14.30
2023-02-06T05:27:30.108Z,11.77
2023-02-06T05:32:31.762Z,15.50
2023-02-06T05:37:33.510Z,12.23
2023-02-06T05:42:35.840Z,16.77
2023-02-06T05:47:37.488Z,16.45
2023-02-06T05:52:39.224Z,27.08
2023-02-06T05:57:41.018Z,24.67
2023-02-06T06:02:42.664Z,21.08
2023-02-06T06:07:44.362Z,15.20
2023-02-06T06:12:46.094Z,15.18
2023-02-06T06:17:47.831Z,16.40
2023-02-06T06:22:49.510Z,24.80
2023-02-06T06:27:51.209Z,25.08
2023-02-06T06:32:52.936Z,18.17
2023-02-06T06:37:54.579Z,13.93
2023-02-06T06:42:56.301Z,20.43
2023-02-06T06:47:58.112Z,24.17
2023-02-06T06:52:59.880Z,24.17
2023-02-06T06:58:01.617Z,24.87
2023-02-06T07:03:03.444Z,20.98
2023-02-06T07:08:05.529Z,17.27
2023-02-06T07:13:07.176Z,16.75
2023-02-06T07:18:11.382Z,16.00
2023-02-06T07:23:13.289Z,13.57
2023-02-06T07:28:15.070Z,16.60
2023-02-06T07:33:16.971Z,14.63
2023-02-06T07:38:18.587Z,16.33
2023-02-06T07:43:20.308Z,14.93
2023-02-06T07:53:24.173Z,16.13
2023-02-06T07:58:26.061Z,18.00
2023-02-06T08:03:27.708Z,21.70
2023-02-06T08:08:29.335Z,18.27
2023-02-06T08:13:31.350Z,18.70
2023-02-06T08:18:33.944Z,21.52
2023-02-06T08:28:38.007Z,17.50
2023-02-06T08:38:42.372Z,18.03
2023-02-06T08:48:46.872Z,19.90
2023-02-06T08:53:48.651Z,22.00
2023-02-06T08:58:50.413Z,20.70
2023-02-06T09:04:00.335Z,24.70
2023-02-06T09:09:02.614Z,21.73
2023-02-06T09:14:05.689Z,24.67
2023-02-06T09:19:10.671Z,21.02
2023-02-06T09:24:12.380Z,20.15
2023-02-06T09:29:14.254Z,22.33
2023-02-06T09:34:15.967Z,20.23
2023-02-06T09:39:17.978Z,24.77
2023-02-06T09:44:24.401Z,22.15
2023-02-06T09:49:39.333Z,23.23
2023-02-06T09:54:56.728Z,19.60
2023-02-06T10:00:02.757Z,19.67
2023-02-06T10:05:22.317Z,22.10
2023-02-06T10:10:37.843Z,22.33
2023-02-06T10:15:47.531Z,18.33
2023-02-06T10:21:01.660Z,17.00
2023-02-06T10:26:17.062Z,16.63
2023-02-06T10:31:30.535Z,18.35
2023-02-06T10:37:10.358Z,19.70
2023-02-06T10:42:33.648Z,15.02
2023-02-06T10:47:46.079Z,9.45
2023-02-06T10:52:48.692Z,12.68
2023-02-06T11:03:07.579Z,10.80
2023-02-06T11:08:20.394Z,11.98
2023-02-06T11:13:33.757Z,11.90
2023-02-06T11:18:39.052Z,12.77
2023-02-06T11:23:42.234Z,12.90
2023-02-06T11:29:08.814Z,12.02
2023-02-06T11:34:25.987Z,10.05
2023-02-06T11:39:34.099Z,13.63
2023-02-06T11:44:41.053Z,9.93
2023-02-06T11:49:42.817Z,10.00
2023-02-06T11:54:54.465Z,12.10
2023-02-06T12:00:20.774Z,9.88
2023-02-06T12:05:28.549Z,11.90
2023-02-06T12:10:36.343Z,13.68
2023-02-06T12:15:48.052Z,12.85
2023-02-06T12:21:05.245Z,15.73
2023-02-06T12:26:18.083Z,15.05
2023-02-06T12:31:26.653Z,15.75
2023-02-06T12:36:35.209Z,14.45
2023-02-06T12:42:01.794Z,26.65
2023-02-06T12:47:13.974Z,18.50
2023-02-06T12:52:33.818Z,14.70
2023-02-06T12:57:37.129Z,16.25
2023-02-06T13:02:51.830Z,13.65
2023-02-06T13:07:57.130Z,15.00
2023-02-06T13:12:59.657Z,24.38
2023-02-06T13:18:01.502Z,20.95
2023-02-06T13:23:12.086Z,10.63
2023-02-06T13:28:23.032Z,15.07
2023-02-06T13:33:27.019Z,11.65
2023-02-06T13:38:35.034Z,12.38
2023-02-06T13:43:37.413Z,10.73
2023-02-06T13:49:33.094Z,10.65
2023-02-06T13:54:53.246Z,11.45
2023-02-06T14:00:17.352Z,8.30
2023-02-06T14:05:22.406Z,11.13
2023-02-06T14:11:10.306Z,8.70
2023-02-06T14:16:50.572Z,11.40
2023-02-06T14:22:12.597Z,17.73
2023-02-06T14:27:26.565Z,14.50
2023-02-06T14:32:28.517Z,11.70
2023-02-06T14:38:01.013Z,12.50
2023-02-06T14:43:07.990Z,15.32
2023-02-06T14:48:34.284Z,14.88
2023-02-06T14:53:40.648Z,17.08
2023-02-06T14:58:46.573Z,16.60
2023-02-06T15:03:52.437Z,16.08
2023-02-06T15:08:54.308Z,15.68
2023-02-06T15:13:56.483Z,16.37
2023-02-06T15:19:22.463Z,15.98
2023-02-06T15:24:51.706Z,15.50
2023-02-06T15:29:54.376Z,13.68
2023-02-06T15:40:06.615Z,21.77
2023-02-06T15:45:17.758Z,20.15
2023-02-06T15:50:22.077Z,18.50
2023-02-06T15:55:27.211Z,22.05
2023-02-06T16:00:34.975Z,21.15
2023-02-06T16:05:42.041Z,19.40
2023-02-06T16:10:49.996Z,21.70
2023-02-06T16:16:02.521Z,19.55
2023-02-06T16:21:16.287Z,19.35
2023-02-06T16:26:27.639Z,17.80
2023-02-06T16:31:31.775Z,23.80
2023-02-06T16:36:33.837Z,21.80
2023-02-06T16:41:38.143Z,24.90
2023-02-06T16:46:40.477Z,24.33
2023-02-06T16:51:44.043Z,22.30
2023-02-06T16:56:46.283Z,23.23
2023-02-06T17:01:47.971Z,17.55
2023-02-06T17:06:50.287Z,20.60
2023-02-06T17:11:53.189Z,18.92
2023-02-06T17:16:55.650Z,18.10
2023-02-06T17:27:01.363Z,18.60
2023-02-06T17:32:03.309Z,20.65
2023-02-06T17:37:08.056Z,19.77
2023-02-06T17:42:09.696Z,22.77
2023-02-06T17:47:11.460Z,21.00
2023-02-06T17:52:13.305Z,19.20
2023-02-06T17:57:15.024Z,22.03
2023-02-06T18:02:16.961Z,18.87
2023-02-06T18:07:18.743Z,22.03
2023-02-06T18:12:20.537Z,19.87
2023-02-06T18:17:22.540Z,25.63
2023-02-06T18:22:24.225Z,23.13
2023-02-06T18:27:25.919Z,25.45
2023-02-06T18:32:27.777Z,32.08
2023-02-06T18:37:29.725Z,23.83
2023-02-06T18:42:50.039Z,18.87
2023-02-06T18:47:52.140Z,19.52
2023-02-06T18:52:53.878Z,25.45
2023-02-06T18:57:55.595Z,22.67
2023-02-06T19:02:58.318Z,22.60
2023-02-06T19:13:01.499Z,18.75
2023-02-06T19:18:05.516Z,19.10
2023-02-06T19:23:08.405Z,17.00
2023-02-06T19:28:10.393Z,17.00
2023-02-06T19:33:12.157Z,16.13
2023-02-06T19:38:13.812Z,18.60
2023-02-06T19:43:16.177Z,19.20
2023-02-06T19:48:17.995Z,21.85
2023-02-06T19:53:19.652Z,25.73
2023-02-06T19:58:21.330Z,25.47
2023-02-06T20:03:23.431Z,20.93
2023-02-06T20:08:25.208Z,19.10
2023-02-06T20:13:27.257Z,22.95
2023-02-06T20:18:33.562Z,19.45
2023-02-06T20:23:38.317Z,17.20
2023-02-06T20:28:39.987Z,25.13
2023-02-06T20:33:42.821Z,19.23
2023-02-06T20:38:49.431Z,20.05
2023-02-06T20:43:51.404Z,21.40
2023-02-06T20:49:02.242Z,25.07
2023-02-06T20:54:04.538Z,20.42
2023-02-06T20:59:07.066Z,24.27
2023-02-06T21:04:11.269Z,25.67
2023-02-06T21:09:12.902Z,26.05
2023-02-06T21:14:14.857Z,24.53
2023-02-06T21:19:18.941Z,25.23
2023-02-06T21:24:20.618Z,23.38
2023-02-06T21:29:25.089Z,18.83
2023-02-06T21:34:26.857Z,25.38
2023-02-06T21:39:30.465Z,26.33
2023-02-06T21:44:32.150Z,27.65
2023-02-06T21:49:33.848Z,28.63
2023-02-06T21:54:35.571Z,26.63
2023-02-06T21:59:38.404Z,25.33
2023-02-06T22:04:40.099Z,22.38
2023-02-06T22:09:41.987Z,22.30
2023-02-06T22:14:43.662Z,25.50
2023-02-06T22:19:45.769Z,26.27
2023-02-06T22:24:50.454Z,25.23
2023-02-06T22:29:52.202Z,29.75
2023-02-06T22:34:54.046Z,28.25
2023-02-06T22:39:55.881Z,29.80
2023-02-06T22:44:57.653Z,27.02
2023-02-06T22:49:59.468Z,27.73
2023-02-06T22:55:03.165Z,24.47
2023-02-06T23:00:09.277Z,31.65
2023-02-06T23:05:11.209Z,31.40
2023-02-06T23:10:12.825Z,28.90
2023-02-06T23:15:14.585Z,31.60
2023-02-06T23:20:16.482Z,28.70
2023-02-06T23:25:18.140Z,27.65
2023-02-06T23:30:20.201Z,28.47
2023-02-06T23:35:21.923Z,28.35
2023-02-06T23:40:23.708Z,25.77
2023-02-06T23:45:26.240Z,28.33
2023-02-06T23:50:28.134Z,27.80
2023-02-06T23:55:30.600Z,25.60
